Aeroporto :
LOGIN :

Iscrizione | Disclaimer

   EN    FR    IT 

 










Sommario :    VFR   VFR Marginale   IFR   IFR Intensivo   IFR Molto Intensivo
Visibilità : 
Base nubi : 
>= 8 km
>= 3000ft
5 / 8 km
1000 / 3000 ft
1500m / 5 km
500 / 1000 ft
800 / 1500m
200 / 500 ft
< 800m
< 200 ft
Simboli :   Temporali  Nebbia  Neve Forte  Precipitazioni Forti  Vento > 20 kt
SIGMETs :   Varie  Temporali  Ghiacco  Turbolenza  Onda orograficha  Ceneri Vulcaniche






- Altitudine del aeroporto : 39 ft
- Codice IATA : ANR


EBAW - Anvers / Antwerpen Deurne

ULTIMO METAR :
  • 220320Z AUTO 05008KT 020V080 9999 // FEW012/// BKN028/// 13/10 Q1015

METARs OBSOLETI :
  • 220250Z AUTO 04008KT 010V070 9999 // FEW013/// SCT026/// 13/10 Q1015
  • 220220Z AUTO 04008KT 9999 // OVC023/// 13/10 Q1015
  • 220150Z AUTO 03008KT 9999 -SHRA FEW019/// BKN024/// 13/11 Q1015
  • 220120Z AUTO 04006KT 360V070 9999 -RA BKN021/// OVC024/// 13/11 Q1015
  • 220050Z AUTO 05006KT 9999 // BKN026/// 13/11 Q1014

TAF TAF EBAW
Valido dal 22 a 03 ore il 22 a 12 ore UTC


220209Z 2203/2212 05009KT 9999 BKN020



MetMap, La meteo Aeronautica in un colpo d'occhio ! - Copyright ORBIFLY Dicembre 2007 - Disclaimer

ORBIFLY MET'MAP TEAM :

Programmazione e sviluppo : Alexandra Zaïnal
Concezione : Baudouin d'Aumeries
Aiuto per la programmazione : Marc-Olivier Méhu
Supporto tecnico e logistico : Manuel Goepfert
Aiuto per la traduzione : Arnaldo La Scala

Contatto : metmap@orbifly.com




FONTI E CREDITI :

   NOAA